createdAt,value
2023-05-16T00:01:35.720Z,48.63
2023-05-16T00:04:37.875Z,48.71
2023-05-16T00:07:40.033Z,48.92
2023-05-16T00:10:41.936Z,48.89
2023-05-16T00:13:44.606Z,49.34
2023-05-16T00:16:47.566Z,49.23
2023-05-16T00:19:49.980Z,49.26
2023-05-16T00:22:51.852Z,49.42
2023-05-16T00:25:53.720Z,49.43
2023-05-16T00:28:55.573Z,49.47
2023-05-16T00:31:58.906Z,49.47
2023-05-16T00:35:00.813Z,49.71
2023-05-16T00:38:02.711Z,49.72
2023-05-16T00:41:04.617Z,49.91
2023-05-16T00:44:07.010Z,50.01
2023-05-16T00:47:08.959Z,50.05
2023-05-16T00:50:11.237Z,50.18
2023-05-16T00:53:13.337Z,49.98
2023-05-16T00:56:16.246Z,50.29
2023-05-16T00:59:18.167Z,50.61
2023-05-16T01:02:20.486Z,50.44
2023-05-16T01:05:22.589Z,50.43
2023-05-16T01:08:24.525Z,50.75
2023-05-16T01:11:36.676Z,50.91
2023-05-16T01:15:11.478Z,51.53
2023-05-16T01:18:30.010Z,51.20
2023-05-16T01:21:57.754Z,51.46
2023-05-16T01:25:06.022Z,51.41
2023-05-16T01:28:08.254Z,51.62
2023-05-16T01:31:10.178Z,51.60
2023-05-16T01:34:12.726Z,51.47
2023-05-16T01:37:24.539Z,51.72
2023-05-16T01:40:39.063Z,51.82
2023-05-16T01:43:48.546Z,52.15
2023-05-16T01:46:56.931Z,52.04
2023-05-16T01:49:58.760Z,52.18
2023-05-16T01:53:09.305Z,52.29
2023-05-16T01:56:16.462Z,52.54
2023-05-16T01:59:21.442Z,52.86
2023-05-16T02:02:23.441Z,52.94
2023-05-16T02:05:25.580Z,53.23
2023-05-16T02:08:31.658Z,53.00
2023-05-16T02:11:33.565Z,53.05
2023-05-16T02:14:35.437Z,53.02
2023-05-16T02:17:37.315Z,52.93
2023-05-16T02:20:40.114Z,53.16
2023-05-16T02:23:41.908Z,53.55
2023-05-16T02:26:43.848Z,52.88
2023-05-16T02:29:45.823Z,52.42
2023-05-16T02:32:49.226Z,52.90
2023-05-16T02:35:52.170Z,52.39
2023-05-16T02:38:54.305Z,52.60
2023-05-16T02:41:57.448Z,52.47
2023-05-16T02:44:59.704Z,52.38
2023-05-16T02:48:01.598Z,52.34
2023-05-16T02:51:04.292Z,52.45
2023-05-16T02:54:08.347Z,52.53
2023-05-16T02:57:10.293Z,52.66
2023-05-16T03:00:15.658Z,52.45
2023-05-16T03:03:18.713Z,52.11
2023-05-16T03:06:20.802Z,52.03
2023-05-16T03:09:23.031Z,52.10
2023-05-16T03:12:25.019Z,52.14
2023-05-16T03:15:27.401Z,52.09
2023-05-16T03:18:29.483Z,52.19
2023-05-16T03:21:31.578Z,52.19
2023-05-16T03:24:33.552Z,51.98
2023-05-16T03:27:35.459Z,52.17
2023-05-16T03:30:37.349Z,52.14
2023-05-16T03:33:39.252Z,51.63
2023-05-16T03:36:41.692Z,51.83
2023-05-16T03:39:43.516Z,51.53
2023-05-16T03:42:45.485Z,51.29
2023-05-16T03:45:47.391Z,50.95
2023-05-16T03:48:49.230Z,51.03
2023-05-16T03:51:51.084Z,50.50
2023-05-16T03:54:53.000Z,49.52
2023-05-16T03:57:54.863Z,48.97
2023-05-16T04:00:56.750Z,48.53
2023-05-16T04:03:58.624Z,48.08
2023-05-16T04:07:02.101Z,47.58
2023-05-16T04:10:04.835Z,46.80
2023-05-16T04:13:06.592Z,46.80
2023-05-16T04:16:08.494Z,45.85
2023-05-16T04:19:10.443Z,45.01
2023-05-16T04:22:12.372Z,44.70
2023-05-16T04:25:14.580Z,44.12
2023-05-16T04:28:16.619Z,43.18
2023-05-16T04:31:18.679Z,43.41
2023-05-16T04:34:20.772Z,42.11
2023-05-16T04:37:22.807Z,42.28
2023-05-16T04:40:25.563Z,41.47
2023-05-16T04:43:27.456Z,41.01
2023-05-16T04:46:29.323Z,40.50
2023-05-16T04:49:31.236Z,40.04
2023-05-16T04:52:33.919Z,39.29
2023-05-16T04:55:35.671Z,39.18
2023-05-16T04:58:37.697Z,39.13
2023-05-16T05:01:39.846Z,39.09
2023-05-16T05:04:42.003Z,38.97
2023-05-16T05:07:43.914Z,38.63
2023-05-16T05:10:45.770Z,38.96
2023-05-16T05:13:48.304Z,38.33
2023-05-16T05:16:51.261Z,37.67
2023-05-16T05:19:53.177Z,37.76
2023-05-16T05:22:55.064Z,38.12
2023-05-16T05:25:56.989Z,37.69
2023-05-16T05:29:05.518Z,37.51
2023-05-16T05:32:08.727Z,36.93
2023-05-16T05:35:10.681Z,36.39
2023-05-16T05:38:12.657Z,36.33
2023-05-16T05:41:14.561Z,35.50
2023-05-16T05:44:16.421Z,35.64
2023-05-16T05:47:18.606Z,34.81
2023-05-16T05:50:20.754Z,34.26
2023-05-16T05:53:22.677Z,34.07
2023-05-16T05:56:24.887Z,33.82
2023-05-16T05:59:27.566Z,33.09
2023-05-16T06:02:29.770Z,32.82
2023-05-16T06:05:31.891Z,32.38
2023-05-16T06:08:34.279Z,32.20
2023-05-16T06:11:36.421Z,32.63
2023-05-16T06:14:38.369Z,31.55
2023-05-16T06:17:40.408Z,31.44
2023-05-16T06:20:42.260Z,31.05
2023-05-16T06:23:44.183Z,31.02
2023-05-16T06:26:49.702Z,30.63
2023-05-16T06:29:51.547Z,30.32
2023-05-16T06:32:53.545Z,29.95
2023-05-16T06:35:55.366Z,29.56
2023-05-16T06:38:57.299Z,29.76
2023-05-16T06:41:59.351Z,29.24
2023-05-16T06:45:01.251Z,29.94
2023-05-16T06:48:03.469Z,29.46
2023-05-16T06:51:05.806Z,28.83
2023-05-16T06:54:07.614Z,29.07
2023-05-16T06:57:09.534Z,28.79
2023-05-16T07:00:11.999Z,29.13
2023-05-16T07:03:14.139Z,28.87
2023-05-16T07:06:16.117Z,29.36
2023-05-16T07:09:18.132Z,29.07
2023-05-16T07:12:21.044Z,28.32
2023-05-16T07:15:23.308Z,28.99
2023-05-16T07:18:25.192Z,28.18
2023-05-16T07:21:27.312Z,28.31
2023-05-16T07:24:29.553Z,27.72
2023-05-16T07:27:32.200Z,28.33
2023-05-16T07:30:34.891Z,27.81
2023-05-16T07:33:36.818Z,28.11
2023-05-16T07:36:38.939Z,27.28
2023-05-16T07:39:40.823Z,26.58
2023-05-16T07:42:42.757Z,27.16
2023-05-16T07:45:44.858Z,26.75
2023-05-16T07:48:46.932Z,27.13
2023-05-16T07:51:48.706Z,26.75
2023-05-16T07:54:50.865Z,26.38
2023-05-16T07:57:52.854Z,26.65
2023-05-16T08:00:55.051Z,26.12
2023-05-16T08:03:56.922Z,26.13
2023-05-16T08:06:59.025Z,26.43
2023-05-16T08:10:01.130Z,26.67
2023-05-16T08:13:04.652Z,26.56
2023-05-16T08:16:06.953Z,26.91
2023-05-16T08:19:08.980Z,26.05
2023-05-16T08:22:11.059Z,27.21
2023-05-16T08:25:13.473Z,26.35
2023-05-16T08:28:15.581Z,26.51
2023-05-16T08:31:17.425Z,26.61
2023-05-16T08:34:19.312Z,26.49
2023-05-16T08:37:21.392Z,26.05
2023-05-16T08:40:26.652Z,25.81
2023-05-16T08:43:29.175Z,25.78
2023-05-16T08:46:33.845Z,26.15
2023-05-16T08:49:36.748Z,26.00
2023-05-16T08:52:40.646Z,25.76
2023-05-16T08:55:44.518Z,26.34
2023-05-16T08:58:47.029Z,25.70
2023-05-16T09:01:49.443Z,25.72
2023-05-16T09:04:53.049Z,25.50
2023-05-16T09:07:55.066Z,25.77
2023-05-16T09:10:56.911Z,25.08
2023-05-16T09:13:58.885Z,25.48
2023-05-16T09:17:09.614Z,26.12
2023-05-16T09:20:16.231Z,25.85
2023-05-16T09:23:24.737Z,26.29
2023-05-16T09:26:27.227Z,25.86
2023-05-16T09:29:29.525Z,25.91
2023-05-16T09:32:31.718Z,25.32
2023-05-16T09:38:38.549Z,24.71
2023-05-16T09:41:40.440Z,24.68
2023-05-16T09:44:47.609Z,25.38
2023-05-16T09:47:49.675Z,25.22
2023-05-16T09:50:54.436Z,24.46
2023-05-16T09:53:58.797Z,24.96
2023-05-16T09:57:02.982Z,25.50
2023-05-16T10:00:10.038Z,25.34
2023-05-16T10:03:12.668Z,25.62
2023-05-16T10:06:16.769Z,25.85
2023-05-16T10:09:20.776Z,25.37
2023-05-16T10:12:32.109Z,25.18
2023-05-16T10:15:36.989Z,24.88
2023-05-16T10:18:40.617Z,25.81
2023-05-16T10:21:52.986Z,25.70
2023-05-16T10:25:26.087Z,25.13
2023-05-16T10:28:29.456Z,25.86
2023-05-16T10:31:31.816Z,25.33
2023-05-16T10:34:34.542Z,25.38
2023-05-16T10:37:37.645Z,25.63
2023-05-16T10:40:40.974Z,25.52
2023-05-16T10:43:46.632Z,25.30
2023-05-16T10:46:48.831Z,25.82
2023-05-16T10:49:50.977Z,26.02
2023-05-16T10:52:53.290Z,26.21
2023-05-16T10:56:01.528Z,25.55
2023-05-16T10:59:05.032Z,26.26
2023-05-16T11:02:22.854Z,26.05
2023-05-16T11:08:28.084Z,25.04
2023-05-16T11:11:38.987Z,25.33
2023-05-16T11:14:47.788Z,25.07
2023-05-16T11:17:49.907Z,24.87
2023-05-16T11:20:53.271Z,24.93
2023-05-16T11:24:35.145Z,24.88
2023-05-16T11:27:48.240Z,25.41
2023-05-16T11:30:55.323Z,24.20
2023-05-16T11:33:57.589Z,24.45
2023-05-16T11:37:00.751Z,24.09
2023-05-16T11:40:09.971Z,24.46
2023-05-16T11:43:18.234Z,25.03
2023-05-16T11:46:20.277Z,24.61
2023-05-16T11:49:23.224Z,25.07
2023-05-16T11:52:26.331Z,24.65
2023-05-16T11:58:37.169Z,24.80
2023-05-16T12:01:40.343Z,24.50
2023-05-16T12:04:47.988Z,25.03
2023-05-16T12:07:51.134Z,25.00
2023-05-16T12:10:54.431Z,24.79
2023-05-16T12:13:56.796Z,24.69
2023-05-16T12:16:59.069Z,24.34
2023-05-16T12:20:01.819Z,24.56
2023-05-16T12:23:04.745Z,24.83
2023-05-16T12:26:07.039Z,24.88
2023-05-16T12:29:11.534Z,25.07
2023-05-16T12:32:13.678Z,24.87
2023-05-16T12:35:18.700Z,24.81
2023-05-16T12:38:21.785Z,25.12
2023-05-16T12:41:24.140Z,25.38
2023-05-16T12:44:30.427Z,23.52
2023-05-16T12:47:36.964Z,25.17
2023-05-16T12:50:40.550Z,24.93
2023-05-16T12:54:01.583Z,24.82
2023-05-16T12:57:13.061Z,24.47
2023-05-16T13:00:18.901Z,24.80
2023-05-16T13:03:21.813Z,24.80
2023-05-16T13:06:23.959Z,25.59
2023-05-16T13:09:29.065Z,25.57
2023-05-16T13:12:33.282Z,25.62
2023-05-16T13:15:35.203Z,26.21
2023-05-16T13:18:37.106Z,25.65
2023-05-16T13:21:39.060Z,25.66
2023-05-16T13:24:40.882Z,25.90
2023-05-16T13:27:44.034Z,26.25
2023-05-16T13:30:46.156Z,25.95
2023-05-16T13:33:49.095Z,26.25
2023-05-16T13:36:54.514Z,25.81
2023-05-16T13:39:57.115Z,26.69
2023-05-16T13:42:59.198Z,26.78
2023-05-16T13:46:01.385Z,26.98
2023-05-16T13:49:03.390Z,27.06
2023-05-16T13:52:05.608Z,27.05
2023-05-16T13:55:08.345Z,26.78
2023-05-16T13:58:10.447Z,26.99
2023-05-16T14:01:13.655Z,27.02
2023-05-16T14:04:15.843Z,26.92
2023-05-16T14:07:18.474Z,26.54
2023-05-16T14:10:20.596Z,27.01
2023-05-16T14:13:22.449Z,26.80
2023-05-16T14:16:24.531Z,27.20
2023-05-16T14:19:26.899Z,27.15
2023-05-16T14:22:29.040Z,27.41
2023-05-16T14:25:31.194Z,27.70
2023-05-16T14:28:33.553Z,27.46
2023-05-16T14:31:36.783Z,27.74
2023-05-16T14:34:38.967Z,28.04
2023-05-16T14:37:41.218Z,27.60
2023-05-16T14:40:43.178Z,27.81
2023-05-16T14:43:45.771Z,27.96
2023-05-16T14:46:48.031Z,28.08
2023-05-16T14:49:50.033Z,28.31
2023-05-16T14:52:53.141Z,28.90
2023-05-16T14:55:55.125Z,28.69
2023-05-16T14:58:57.299Z,29.47
2023-05-16T15:01:59.826Z,30.78
2023-05-16T15:05:01.871Z,30.31
2023-05-16T15:08:03.798Z,30.62
2023-05-16T15:11:05.886Z,30.60
2023-05-16T15:14:07.781Z,31.81
2023-05-16T15:17:09.850Z,30.92
2023-05-16T15:20:12.011Z,31.71
2023-05-16T15:23:14.103Z,31.86
2023-05-16T15:26:17.667Z,32.13
2023-05-16T15:29:20.329Z,31.83
2023-05-16T15:32:23.621Z,32.21
2023-05-16T15:35:26.318Z,32.12
2023-05-16T15:38:28.694Z,32.28
2023-05-16T15:41:56.453Z,32.40
2023-05-16T15:44:52.853Z,32.34
2023-05-16T15:47:54.898Z,32.51
2023-05-16T15:50:56.887Z,32.33
2023-05-16T15:53:58.904Z,32.58
2023-05-16T15:57:00.981Z,32.47
2023-05-16T16:00:03.015Z,32.58
2023-05-16T16:03:13.607Z,32.34
2023-05-16T16:06:15.674Z,32.57
2023-05-16T16:09:17.813Z,32.55
2023-05-16T16:12:19.759Z,32.53
2023-05-16T16:15:21.722Z,32.80
2023-05-16T16:18:23.653Z,32.75
2023-05-16T16:21:26.088Z,32.98
2023-05-16T16:24:28.034Z,32.90
2023-05-16T16:27:29.965Z,33.21
2023-05-16T16:30:31.913Z,33.44
2023-05-16T16:33:34.643Z,33.88
2023-05-16T16:36:36.653Z,33.65
2023-05-16T16:39:38.798Z,34.23
2023-05-16T16:42:40.892Z,34.30
2023-05-16T16:45:42.933Z,34.46
2023-05-16T16:48:44.858Z,34.05
2023-05-16T16:51:47.421Z,34.02
2023-05-16T16:54:49.388Z,34.51
2023-05-16T16:57:51.366Z,34.71
2023-05-16T17:00:53.344Z,34.29
2023-05-16T17:03:55.302Z,34.57
2023-05-16T17:06:57.949Z,34.82
2023-05-16T17:10:01.139Z,35.07
2023-05-16T17:13:07.357Z,35.70
2023-05-16T17:16:10.777Z,35.60
2023-05-16T17:19:12.796Z,35.54
2023-05-16T17:22:14.871Z,35.90
2023-05-16T17:25:16.835Z,35.88
2023-05-16T17:28:19.194Z,35.91
2023-05-16T17:31:21.192Z,36.89
2023-05-16T17:34:23.500Z,36.13
2023-05-16T17:37:25.446Z,36.32
2023-05-16T17:40:27.283Z,36.28
2023-05-16T17:43:32.511Z,36.08
2023-05-16T17:46:37.022Z,36.08
2023-05-16T17:49:38.985Z,36.14
2023-05-16T17:52:40.983Z,36.62
2023-05-16T17:55:43.065Z,37.31
2023-05-16T17:58:46.185Z,37.52
2023-05-16T18:01:48.571Z,37.36
2023-05-16T18:04:50.463Z,38.07
2023-05-16T18:07:52.641Z,37.45
2023-05-16T18:10:54.606Z,37.33
2023-05-16T18:13:56.914Z,37.63
2023-05-16T18:16:58.936Z,37.32
2023-05-16T18:20:09.090Z,37.28
2023-05-16T18:23:12.116Z,37.44
2023-05-16T18:26:15.385Z,37.31
2023-05-16T18:29:17.455Z,37.61
2023-05-16T18:32:21.058Z,37.84
2023-05-16T18:35:24.402Z,37.79
2023-05-16T18:38:32.616Z,38.25
2023-05-16T18:41:35.471Z,38.18
2023-05-16T18:44:37.396Z,38.74
2023-05-16T18:47:39.545Z,39.25
2023-05-16T18:50:41.766Z,40.01
2023-05-16T18:53:45.046Z,40.71
2023-05-16T18:56:47.155Z,41.35
2023-05-16T18:59:51.075Z,41.46
2023-05-16T19:02:54.974Z,41.69
2023-05-16T19:05:57.215Z,42.31
2023-05-16T19:08:59.279Z,43.03
2023-05-16T19:12:01.301Z,42.73
2023-05-16T19:15:03.718Z,43.19
2023-05-16T19:18:06.469Z,45.84
2023-05-16T19:21:08.777Z,45.06
2023-05-16T19:24:10.790Z,44.15
2023-05-16T19:27:12.810Z,44.26
2023-05-16T19:30:14.845Z,44.83
2023-05-16T19:33:16.873Z,45.40
2023-05-16T19:36:18.856Z,45.87
2023-05-16T19:39:20.883Z,45.68
2023-05-16T19:42:22.885Z,46.09
2023-05-16T19:45:24.922Z,46.15
2023-05-16T19:48:27.567Z,46.41
2023-05-16T19:51:40.806Z,46.54
2023-05-16T19:54:44.103Z,45.97
2023-05-16T19:57:46.074Z,44.96
2023-05-16T20:00:49.126Z,44.29
2023-05-16T20:03:51.136Z,43.95
2023-05-16T20:06:53.117Z,43.58
2023-05-16T20:09:55.040Z,43.27
2023-05-16T20:12:57.105Z,43.16
2023-05-16T20:15:59.105Z,42.91
2023-05-16T20:19:01.201Z,42.83
2023-05-16T20:22:03.442Z,42.50
2023-05-16T20:25:09.913Z,42.17
2023-05-16T20:28:11.874Z,41.97
2023-05-16T20:31:13.831Z,41.65
2023-05-16T20:34:15.796Z,41.08
2023-05-16T20:37:17.769Z,40.87
2023-05-16T20:40:20.154Z,40.35
2023-05-16T20:43:22.381Z,39.63
2023-05-16T20:46:24.694Z,39.27
2023-05-16T20:49:26.620Z,39.10
2023-05-16T20:52:28.500Z,38.72
2023-05-16T20:55:31.301Z,38.54
2023-05-16T20:58:33.281Z,38.47
2023-05-16T21:01:35.264Z,38.22
2023-05-16T21:04:37.941Z,38.24
2023-05-16T21:07:40.187Z,38.20
2023-05-16T21:10:42.157Z,38.05
2023-05-16T21:13:44.106Z,38.07
2023-05-16T21:16:46.139Z,37.96
2023-05-16T21:19:48.047Z,38.07
2023-05-16T21:22:50.056Z,38.01
2023-05-16T21:25:52.013Z,37.88
2023-05-16T21:28:55.626Z,38.02
2023-05-16T21:31:58.766Z,38.12
2023-05-16T21:35:04.858Z,38.00
2023-05-16T21:38:06.919Z,38.12
2023-05-16T21:41:09.053Z,37.92
2023-05-16T21:44:17.037Z,38.14
2023-05-16T21:47:20.097Z,38.16
2023-05-16T21:50:21.940Z,38.26
2023-05-16T21:53:25.252Z,38.29
2023-05-16T21:56:27.785Z,38.40
2023-05-16T21:59:29.798Z,38.21
2023-05-16T22:02:31.800Z,38.26
2023-05-16T22:05:33.757Z,38.52
2023-05-16T22:08:35.818Z,38.37
2023-05-16T22:11:37.714Z,38.37
2023-05-16T22:14:39.625Z,38.49
2023-05-16T22:17:41.905Z,38.72
2023-05-16T22:20:44.015Z,38.77
2023-05-16T22:23:45.978Z,38.91
2023-05-16T22:26:47.935Z,39.04
2023-05-16T22:29:49.870Z,39.26
2023-05-16T22:32:51.836Z,39.41
2023-05-16T22:35:54.101Z,39.67
2023-05-16T22:38:56.122Z,39.58
2023-05-16T22:41:58.217Z,39.72
2023-05-16T22:45:00.192Z,39.97
2023-05-16T22:48:02.354Z,40.01
2023-05-16T22:51:04.392Z,40.06
2023-05-16T22:54:06.495Z,40.03
2023-05-16T22:57:08.494Z,40.18
2023-05-16T23:00:10.785Z,40.28
2023-05-16T23:03:12.905Z,40.55
2023-05-16T23:06:14.921Z,40.56
2023-05-16T23:09:16.911Z,40.68
2023-05-16T23:12:21.289Z,40.91
2023-05-16T23:15:23.492Z,40.94
2023-05-16T23:18:25.614Z,40.95
2023-05-16T23:21:27.618Z,41.01
2023-05-16T23:24:29.536Z,41.02
2023-05-16T23:27:31.952Z,41.26
2023-05-16T23:30:34.317Z,41.20
2023-05-16T23:33:36.375Z,41.27
2023-05-16T23:36:38.304Z,41.26
2023-05-16T23:39:40.200Z,41.37
2023-05-16T23:42:42.146Z,41.12
2023-05-16T23:45:44.178Z,41.46
2023-05-16T23:48:46.255Z,41.37
2023-05-16T23:51:57.482Z,41.45
2023-05-16T23:55:00.148Z,41.57
2023-05-16T23:58:02.149Z,41.49
